Terminal Aerodrome Forecast
Issued by NWS

Home | Current Version | Previous Version | Text Only | Print | Product List | Glossary On
Versions: 1 2 3 4 5 6 7 8 9 10 11 12 13 14 15 16 17 18 19 20 21 22 23 24 25 26 27 28 29 30 31 32 33
000
FTUS43 KILX 301143 CCA
TAFBMI
TAF COR
KBMI 301143Z 3012/0112 08014KT 2SM -SHRA BR OVC005
     FM301500 10018G25KT 2SM -SHRA BR OVC005
     FM301900 09013KT 5SM -SHRA BR VCTS OVC008CB
     FM010000 05010KT 5SM BR VCSH OVC008=

USA.gov is the U.S. government's official web portal to all federal, state and local government web resources and services.